Time;durP1;ratioP1;P1;durP2;ratioP2;P2;SDS_P1;SDS_P2;PMS_P1;PMS_P2;Temp;Humidity;BMP_temperature;BMP_pressure;BME280_temperature;BME280_humidity;BME280_pressure;Samples;Min_cycle;Max_cycle;Signal;HPM_P1;HPM_P2
2024/01/29 00:03:45;;;;;;;77.23;32.97;;;;;;;;;;10456156;28;20033;-78
2024/01/29 00:08:46;;;;;;;77.37;33.20;;;;;;;;;;10457072;28;20119;-81
2024/01/29 00:13:47;;;;;;;67.73;34.60;;;;;;;;;;10448750;28;20029;-79
2024/01/29 00:18:48;;;;;;;105.63;45.23;;;;;;;;;;10449181;28;20488;-79
2024/01/29 00:23:49;;;;;;;120.27;50.60;;;;;;;;;;10448175;28;20040;-78
2024/01/29 00:28:51;;;;;;;143.03;62.37;;;;;;;;;;10448817;28;20476;-80
2024/01/29 00:33:52;;;;;;;123.70;54.87;;;;;;;;;;10448218;28;20414;-79
2024/01/29 00:38:53;;;;;;;140.17;62.43;;;;;;;;;;10447544;28;20120;-78
2024/01/29 00:43:54;;;;;;;142.87;59.40;;;;;;;;;;10446076;28;20524;-78
2024/01/29 00:48:55;;;;;;;133.30;56.60;;;;;;;;;;10458964;28;20112;-78
2024/01/29 00:54:03;;;;;;;123.57;55.13;;;;;;;;;;10435163;28;20040;-78
2024/01/29 00:59:04;;;;;;;149.67;62.10;;;;;;;;;;10448895;28;20182;-80
2024/01/29 01:04:05;;;;;;;158.50;66.67;;;;;;;;;;10457446;28;20032;-81
2024/01/29 01:09:06;;;;;;;160.93;65.27;;;;;;;;;;10449910;28;20492;-79
2024/01/29 01:14:07;;;;;;;116.77;50.43;;;;;;;;;;10451820;28;20050;-79
2024/01/29 01:19:08;;;;;;;119.93;50.47;;;;;;;;;;10446029;28;20451;-78
2024/01/29 01:24:09;;;;;;;126.70;57.53;;;;;;;;;;10445430;28;20040;-78
2024/01/29 01:29:18;;;;;;;124.43;55.20;;;;;;;;;;10443997;28;20039;-78
2024/01/29 01:34:19;;;;;;;108.50;49.47;;;;;;;;;;10446709;28;20036;-78
2024/01/29 01:39:20;;;;;;;99.50;46.10;;;;;;;;;;10444846;28;20060;-79
2024/01/29 01:44:21;;;;;;;102.53;46.97;;;;;;;;;;10444569;28;20483;-81
2024/01/29 01:49:22;;;;;;;109.63;47.67;;;;;;;;;;10457327;28;20029;-78
2024/01/29 01:54:24;;;;;;;126.37;54.20;;;;;;;;;;10446228;28;20052;-78
2024/01/29 01:59:25;;;;;;;147.43;67.97;;;;;;;;;;10450612;28;20043;-81
2024/01/29 02:04:26;;;;;;;167.43;76.27;;;;;;;;;;10453325;28;20025;-79
2024/01/29 02:09:27;;;;;;;155.37;67.67;;;;;;;;;;10450857;28;20032;-79
2024/01/29 02:14:28;;;;;;;137.10;60.57;;;;;;;;;;10436867;28;20057;-79
2024/01/29 02:19:30;;;;;;;119.63;52.77;;;;;;;;;;10442435;28;20569;-77
2024/01/29 02:24:31;;;;;;;114.60;49.80;;;;;;;;;;10446623;28;20036;-78
2024/01/29 02:29:32;;;;;;;117.97;56.13;;;;;;;;;;10444014;28;20040;-78
2024/01/29 02:34:33;;;;;;;128.53;58.70;;;;;;;;;;10445700;28;20382;-80
2024/01/29 02:39:34;;;;;;;126.77;56.40;;;;;;;;;;10443070;28;20496;-80
2024/01/29 02:44:35;;;;;;;123.40;57.30;;;;;;;;;;10443722;28;20053;-78
2024/01/29 02:49:36;;;;;;;126.10;56.33;;;;;;;;;;10448161;28;20438;-78
2024/01/29 02:54:37;;;;;;;114.67;49.30;;;;;;;;;;10453780;28;20045;-78
2024/01/29 02:59:44;;;;;;;101.60;47.23;;;;;;;;;;10455970;28;20029;-78
2024/01/29 03:04:45;;;;;;;107.73;47.60;;;;;;;;;;10433699;28;20045;-78
2024/01/29 03:09:46;;;;;;;114.07;47.43;;;;;;;;;;10442196;28;20020;-79
2024/01/29 03:14:47;;;;;;;116.70;50.07;;;;;;;;;;10442201;28;20494;-80
2024/01/29 03:19:48;;;;;;;124.37;53.43;;;;;;;;;;10439720;28;20122;-78
2024/01/29 03:24:49;;;;;;;144.47;60.73;;;;;;;;;;10442941;28;20037;-80
2024/01/29 03:29:50;;;;;;;125.40;53.50;;;;;;;;;;10444141;28;20577;-79
2024/01/29 03:34:51;;;;;;;108.77;51.03;;;;;;;;;;10451292;28;20045;-78
2024/01/29 03:39:52;;;;;;;113.73;50.83;;;;;;;;;;10449933;28;20033;-79
2024/01/29 03:44:53;;;;;;;107.47;48.70;;;;;;;;;;10451990;28;20285;-78
2024/01/29 03:49:55;;;;;;;106.13;45.93;;;;;;;;;;10432397;28;20044;-77
2024/01/29 03:54:56;;;;;;;101.27;45.53;;;;;;;;;;10461888;28;20131;-78
2024/01/29 03:59:57;;;;;;;108.20;46.93;;;;;;;;;;10438122;28;20049;-78
2024/01/29 04:04:58;;;;;;;107.23;48.10;;;;;;;;;;10453627;28;20071;-79
2024/01/29 04:09:59;;;;;;;106.50;50.03;;;;;;;;;;10439950;28;20029;-78
2024/01/29 04:15:06;;;;;;;119.73;51.77;;;;;;;;;;10446075;28;20037;-79
2024/01/29 04:20:07;;;;;;;121.67;53.03;;;;;;;;;;10459940;28;20024;-79
2024/01/29 04:25:09;;;;;;;116.40;50.33;;;;;;;;;;10455373;28;20399;-78
2024/01/29 04:30:10;;;;;;;120.70;49.67;;;;;;;;;;10449850;28;20036;-78
2024/01/29 04:35:17;;;;;;;106.57;45.70;;;;;;;;;;10448568;28;20500;-78
2024/01/29 04:40:18;;;;;;;122.63;51.07;;;;;;;;;;10451396;28;20064;-79
2024/01/29 04:45:19;;;;;;;111.23;51.17;;;;;;;;;;10435694;28;20060;-78
2024/01/29 04:50:20;;;;;;;135.23;58.17;;;;;;;;;;10447351;28;20040;-79
2024/01/29 04:55:21;;;;;;;122.13;52.10;;;;;;;;;;10447401;28;20033;-79
2024/01/29 05:00:23;;;;;;;125.67;57.17;;;;;;;;;;10446415;28;20393;-78
2024/01/29 05:05:24;;;;;;;125.80;56.53;;;;;;;;;;10452578;28;20448;-80
2024/01/29 05:10:25;;;;;;;109.23;48.67;;;;;;;;;;10454243;28;20037;-79
2024/01/29 05:15:27;;;;;;;134.40;60.70;;;;;;;;;;10456248;28;20042;-81
2024/01/29 05:20:29;;;;;;;115.10;53.73;;;;;;;;;;10454544;28;20746;-80
2024/01/29 05:25:32;;;;;;;121.07;56.50;;;;;;;;;;10444787;28;20115;-79
2024/01/29 05:30:33;;;;;;;130.57;59.00;;;;;;;;;;10433759;28;20021;-79
2024/01/29 05:35:34;;;;;;;109.50;53.53;;;;;;;;;;10446194;28;20079;-79
2024/01/29 05:40:35;;;;;;;116.17;50.53;;;;;;;;;;10454114;28;20566;-78
2024/01/29 05:45:36;;;;;;;102.73;46.77;;;;;;;;;;10450128;28;20041;-79
2024/01/29 05:50:37;;;;;;;103.97;44.90;;;;;;;;;;10453215;28;20025;-79
2024/01/29 05:55:38;;;;;;;97.83;45.97;;;;;;;;;;10443682;28;20033;-81
2024/01/29 06:00:39;;;;;;;105.47;47.17;;;;;;;;;;10429029;28;20029;-79
2024/01/29 06:05:40;;;;;;;108.80;46.70;;;;;;;;;;10448444;28;20164;-79
2024/01/29 06:10:41;;;;;;;109.97;50.07;;;;;;;;;;10446503;28;20396;-79
2024/01/29 06:15:42;;;;;;;116.57;53.33;;;;;;;;;;10452810;28;20033;-79
2024/01/29 06:20:43;;;;;;;124.17;57.77;;;;;;;;;;10447704;28;20108;-81
2024/01/29 06:25:44;;;;;;;122.87;54.80;;;;;;;;;;10457958;28;20037;-79
2024/01/29 06:30:45;;;;;;;141.43;64.80;;;;;;;;;;10433465;28;20028;-78
2024/01/29 06:35:46;;;;;;;151.70;68.97;;;;;;;;;;10449082;28;20037;-79
2024/01/29 06:40:47;;;;;;;135.27;63.47;;;;;;;;;;10460456;28;20099;-79
2024/01/29 06:45:48;;;;;;;139.27;67.13;;;;;;;;;;10457782;28;20066;-79
2024/01/29 06:50:49;;;;;;;117.50;54.57;;;;;;;;;;10435101;28;20077;-79
2024/01/29 06:55:50;;;;;;;129.53;58.10;;;;;;;;;;10446908;28;20052;-85
2024/01/29 07:00:52;;;;;;;128.60;59.77;;;;;;;;;;10427091;28;20035;-81
2024/01/29 07:05:53;;;;;;;131.00;57.70;;;;;;;;;;10430094;28;20044;-79
2024/01/29 07:10:54;;;;;;;113.57;51.47;;;;;;;;;;10457878;28;20625;-80
2024/01/29 07:15:55;;;;;;;111.47;55.20;;;;;;;;;;10452189;28;20067;-79
2024/01/29 07:20:56;;;;;;;118.33;55.27;;;;;;;;;;10446677;28;20075;-79
2024/01/29 07:25:57;;;;;;;130.17;59.33;;;;;;;;;;10462086;28;20024;-81
2024/01/29 07:30:58;;;;;;;127.33;56.20;;;;;;;;;;10456351;28;20055;-80
2024/01/29 07:36:00;;;;;;;117.17;56.77;;;;;;;;;;10457983;28;20037;-83
2024/01/29 07:41:01;;;;;;;107.37;53.77;;;;;;;;;;10482897;28;20032;-84
2024/01/29 07:46:02;;;;;;;123.73;59.93;;;;;;;;;;10483870;28;20139;-80
2024/01/29 07:51:03;;;;;;;117.07;56.03;;;;;;;;;;10452671;28;20025;-82
2024/01/29 07:56:05;;;;;;;120.63;62.97;;;;;;;;;;10473942;28;20133;-80
2024/01/29 08:01:06;;;;;;;120.73;59.97;;;;;;;;;;10461967;28;20036;-84
2024/01/29 08:06:07;;;;;;;114.70;55.93;;;;;;;;;;10455748;28;20032;-82
2024/01/29 08:11:09;;;;;;;114.97;59.70;;;;;;;;;;10456899;28;20473;-81
2024/01/29 08:16:10;;;;;;;106.40;54.20;;;;;;;;;;10467564;28;20033;-79
2024/01/29 08:21:11;;;;;;;107.60;58.00;;;;;;;;;;10451887;28;20111;-83
2024/01/29 08:26:12;;;;;;;108.70;58.70;;;;;;;;;;10465420;28;20036;-81
2024/01/29 08:31:13;;;;;;;104.17;60.27;;;;;;;;;;10446969;28;20025;-82
2024/01/29 08:36:15;;;;;;;98.97;52.33;;;;;;;;;;10441739;28;20049;-81
2024/01/29 08:41:16;;;;;;;85.00;46.33;;;;;;;;;;10446272;28;20041;-83
2024/01/29 08:46:17;;;;;;;85.97;42.80;;;;;;;;;;10445485;28;20056;-80
2024/01/29 08:51:18;;;;;;;102.97;62.57;;;;;;;;;;10447908;28;20503;-79
2024/01/29 08:56:20;;;;;;;147.83;73.00;;;;;;;;;;10447050;28;20075;-79
2024/01/29 09:01:27;;;;;;;110.93;56.20;;;;;;;;;;10446647;28;20025;-79
2024/01/29 09:06:28;;;;;;;137.10;66.27;;;;;;;;;;10447830;28;20033;-82
2024/01/29 09:11:29;;;;;;;131.70;62.03;;;;;;;;;;10440518;28;20037;-80
2024/01/29 09:16:30;;;;;;;108.43;53.57;;;;;;;;;;10425585;28;20037;-81
2024/01/29 09:21:34;;;;;;;145.37;69.27;;;;;;;;;;10446391;28;20033;-79
2024/01/29 09:26:35;;;;;;;122.27;60.83;;;;;;;;;;10446029;28;20062;-80
2024/01/29 09:31:36;;;;;;;77.00;42.13;;;;;;;;;;10422242;28;20465;-77
2024/01/29 09:36:37;;;;;;;91.40;48.13;;;;;;;;;;10445638;28;20094;-81
2024/01/29 09:41:38;;;;;;;71.83;39.03;;;;;;;;;;10445393;28;20032;-78
2024/01/29 09:46:40;;;;;;;66.00;34.07;;;;;;;;;;10444019;28;20056;-79
2024/01/29 09:51:43;;;;;;;98.20;48.73;;;;;;;;;;10445397;28;20031;-79
2024/01/29 09:56:44;;;;;;;77.03;38.87;;;;;;;;;;10444398;28;20052;-80
2024/01/29 10:01:46;;;;;;;68.33;36.47;;;;;;;;;;10445155;28;20468;-78
2024/01/29 10:06:47;;;;;;;61.33;34.93;;;;;;;;;;10445042;28;20040;-78
2024/01/29 10:11:49;;;;;;;68.50;37.87;;;;;;;;;;10444293;28;20071;-79
2024/01/29 10:16:51;;;;;;;77.33;42.27;;;;;;;;;;10444750;28;20477;-82
2024/01/29 10:21:52;;;;;;;67.33;36.60;;;;;;;;;;10443308;28;20036;-78
2024/01/29 10:26:53;;;;;;;72.97;36.37;;;;;;;;;;10444672;28;20066;-78
2024/01/29 10:32:01;;;;;;;61.53;32.73;;;;;;;;;;10444059;28;20080;-80
2024/01/29 10:37:10;;;;;;;59.93;32.57;;;;;;;;;;10443419;28;20033;-78
2024/01/29 10:42:14;;;;;;;59.63;30.90;;;;;;;;;;10425565;28;20416;-78
2024/01/29 10:47:27;;;;;;;60.23;31.60;;;;;;;;;;10441458;28;20045;-79
2024/01/29 10:52:28;;;;;;;53.63;30.87;;;;;;;;;;10442130;28;20040;-78
2024/01/29 10:57:30;;;;;;;191.50;106.27;;;;;;;;;;10443408;28;20089;-81
2024/01/29 11:02:31;;;;;;;109.20;63.70;;;;;;;;;;10443515;28;20067;-78
2024/01/29 11:07:33;;;;;;;70.40;37.67;;;;;;;;;;10443504;28;20032;-79
2024/01/29 11:12:36;;;;;;;64.17;33.83;;;;;;;;;;10442545;28;20060;-78
2024/01/29 11:17:37;;;;;;;64.93;33.70;;;;;;;;;;10443296;28;20526;-79
2024/01/29 11:22:39;;;;;;;59.03;33.77;;;;;;;;;;10442888;28;20059;-79
2024/01/29 11:27:40;;;;;;;79.90;41.97;;;;;;;;;;10443730;28;20032;-79
2024/01/29 11:32:41;;;;;;;59.43;37.63;;;;;;;;;;10442489;28;20037;-78
2024/01/29 11:37:43;;;;;;;64.93;35.53;;;;;;;;;;10441962;28;20029;-80
2024/01/29 11:42:44;;;;;;;83.00;44.77;;;;;;;;;;10449494;28;20037;-81
2024/01/29 11:47:45;;;;;;;48.70;27.30;;;;;;;;;;10453455;28;20053;-79
2024/01/29 11:52:46;;;;;;;59.23;34.50;;;;;;;;;;10449054;28;20064;-79
2024/01/29 11:57:52;;;;;;;47.87;27.57;;;;;;;;;;10449504;28;20036;-79
2024/01/29 12:02:53;;;;;;;62.33;34.77;;;;;;;;;;10451370;28;20678;-79
2024/01/29 12:07:54;;;;;;;42.37;25.70;;;;;;;;;;10447888;28;20151;-80
2024/01/29 12:12:55;;;;;;;33.33;19.40;;;;;;;;;;10447722;28;20072;-80
2024/01/29 12:17:56;;;;;;;30.40;17.03;;;;;;;;;;10455568;28;20024;-80
2024/01/29 12:22:57;;;;;;;33.83;20.60;;;;;;;;;;10448682;28;20035;-80
2024/01/29 12:28:05;;;;;;;37.97;20.57;;;;;;;;;;10446469;28;20033;-79
2024/01/29 12:33:07;;;;;;;64.27;36.63;;;;;;;;;;10448699;28;20087;-78
2024/01/29 12:38:09;;;;;;;38.10;20.20;;;;;;;;;;10459653;28;20112;-80
2024/01/29 12:43:11;;;;;;;38.07;19.60;;;;;;;;;;10446906;28;20748;-81
2024/01/29 12:48:12;;;;;;;55.17;32.03;;;;;;;;;;10452805;28;20061;-80
2024/01/29 12:53:13;;;;;;;35.40;20.53;;;;;;;;;;10457985;28;20033;-80
2024/01/29 12:58:14;;;;;;;33.90;20.30;;;;;;;;;;10451175;28;20123;-81
2024/01/29 13:03:15;;;;;;;42.27;25.10;;;;;;;;;;10448239;28;20103;-79
2024/01/29 13:08:25;;;;;;;42.83;24.23;;;;;;;;;;10450516;28;20043;-82
2024/01/29 13:13:26;;;;;;;75.63;37.97;;;;;;;;;;10450299;28;20155;-79
2024/01/29 13:18:27;;;;;;;50.57;27.13;;;;;;;;;;10453413;28;20067;-79
2024/01/29 13:23:28;;;;;;;41.50;23.27;;;;;;;;;;10433669;28;20033;-82
2024/01/29 13:28:30;;;;;;;42.90;25.23;;;;;;;;;;10442739;28;20611;-81
2024/01/29 13:33:40;;;;;;;44.47;26.17;;;;;;;;;;10444116;28;20033;-78
2024/01/29 13:38:41;;;;;;;38.43;24.13;;;;;;;;;;10440785;28;20037;-78
2024/01/29 13:43:42;;;;;;;37.22;23.10;;;;;;;;;;10431745;28;20123;-79
2024/01/29 13:48:43;;;;;;;36.85;23.80;;;;;;;;;;10447402;28;20139;-79
2024/01/29 13:53:44;;;;;;;33.42;18.63;;;;;;;;;;10444610;28;20176;-77
2024/01/29 13:58:45;;;;;;;30.55;17.45;;;;;;;;;;10469942;28;20037;-78
2024/01/29 14:03:46;;;;;;;141.20;88.22;;;;;;;;;;10441682;28;20047;-80
2024/01/29 14:08:47;;;;;;;464.83;256.98;;;;;;;;;;10446680;28;20079;-82
2024/01/29 14:13:49;;;;;;;70.03;34.55;;;;;;;;;;10442874;28;20602;-77
2024/01/29 14:18:52;;;;;;;210.48;88.38;;;;;;;;;;10443583;28;20032;-77
2024/01/29 14:23:53;;;;;;;96.22;40.65;;;;;;;;;;10431956;28;20135;-81
2024/01/29 14:28:54;;;;;;;110.60;49.63;;;;;;;;;;10444665;28;20043;-79
2024/01/29 14:33:55;;;;;;;71.20;32.33;;;;;;;;;;10439110;28;20405;-82
2024/01/29 14:38:56;;;;;;;141.87;60.23;;;;;;;;;;10438832;28;20038;-80
2024/01/29 14:43:58;;;;;;;152.77;66.23;;;;;;;;;;10447477;28;20083;-82
2024/01/29 14:48:59;;;;;;;139.43;62.87;;;;;;;;;;10465654;28;20075;-80
2024/01/29 14:54:00;;;;;;;173.70;75.70;;;;;;;;;;10442138;28;20051;-78
2024/01/29 14:59:08;;;;;;;124.43;59.33;;;;;;;;;;10439598;28;20056;-81
2024/01/29 15:04:11;;;;;;;104.10;47.30;;;;;;;;;;10424994;28;20485;-78
2024/01/29 15:09:12;;;;;;;83.97;41.97;;;;;;;;;;10432563;28;21498;-78
2024/01/29 15:14:20;;;;;;;237.30;118.03;;;;;;;;;;10436796;28;20037;-78
2024/01/29 15:19:21;;;;;;;148.77;77.83;;;;;;;;;;10456158;28;20033;-80
2024/01/29 15:24:22;;;;;;;178.27;111.10;;;;;;;;;;10442524;28;20075;-77
2024/01/29 15:29:23;;;;;;;251.97;149.50;;;;;;;;;;10449906;28;20033;-77
2024/01/29 15:34:24;;;;;;;247.60;123.17;;;;;;;;;;10456660;28;20797;-79
2024/01/29 15:39:26;;;;;;;325.37;141.10;;;;;;;;;;10448533;28;20605;-77
2024/01/29 15:44:27;;;;;;;223.53;101.37;;;;;;;;;;10445323;28;20033;-78
2024/01/29 15:49:30;;;;;;;157.43;74.57;;;;;;;;;;10448398;28;20057;-79
2024/01/29 15:54:38;;;;;;;128.27;64.83;;;;;;;;;;10455299;28;20036;-79
2024/01/29 15:59:39;;;;;;;71.47;36.77;;;;;;;;;;10437586;28;20024;-77
2024/01/29 16:04:42;;;;;;;94.87;46.17;;;;;;;;;;10448376;28;20100;-80
2024/01/29 16:09:48;;;;;;;97.37;48.17;;;;;;;;;;10442221;28;20033;-79
2024/01/29 16:15:01;;;;;;;100.17;52.03;;;;;;;;;;10446094;28;20074;-79
2024/01/29 16:20:04;;;;;;;107.23;52.67;;;;;;;;;;10445267;28;20024;-79
2024/01/29 16:25:05;;;;;;;100.70;52.83;;;;;;;;;;10448451;28;20430;-80
2024/01/29 16:30:06;;;;;;;181.47;85.77;;;;;;;;;;10446646;28;20044;-80
2024/01/29 16:35:16;;;;;;;181.87;91.30;;;;;;;;;;10467270;28;20124;-78
2024/01/29 16:40:17;;;;;;;145.57;75.93;;;;;;;;;;10436307;28;20027;-82
2024/01/29 16:45:18;;;;;;;122.10;63.57;;;;;;;;;;10443622;28;20035;-79
2024/01/29 16:50:19;;;;;;;117.17;63.37;;;;;;;;;;10436879;28;20044;-79
2024/01/29 16:55:20;;;;;;;152.53;80.67;;;;;;;;;;10451186;28;20048;-81
2024/01/29 17:00:28;;;;;;;191.07;97.27;;;;;;;;;;10434885;28;20032;-79
2024/01/29 17:05:29;;;;;;;197.97;104.93;;;;;;;;;;10447670;28;20367;-78
2024/01/29 17:10:30;;;;;;;228.40;124.07;;;;;;;;;;10437248;28;20040;-80
2024/01/29 17:15:31;;;;;;;191.20;105.47;;;;;;;;;;10431471;28;20129;-79
2024/01/29 17:20:32;;;;;;;216.03;113.83;;;;;;;;;;10431642;28;20132;-78
2024/01/29 17:25:33;;;;;;;176.57;89.63;;;;;;;;;;10421128;28;20037;-82
2024/01/29 17:30:34;;;;;;;132.20;65.13;;;;;;;;;;10447618;28;20065;-78
2024/01/29 17:35:35;;;;;;;121.67;57.57;;;;;;;;;;10449575;22;20744;-78
2024/01/29 17:40:37;;;;;;;141.33;70.93;;;;;;;;;;10446088;28;20029;-78
2024/01/29 17:45:38;;;;;;;122.30;57.37;;;;;;;;;;10433810;22;20057;-78
2024/01/29 17:50:39;;;;;;;127.60;63.70;;;;;;;;;;10376241;28;20044;-80
2024/01/29 17:55:40;;;;;;;132.57;66.83;;;;;;;;;;10403993;28;20263;-78
2024/01/29 18:00:41;;;;;;;127.83;64.20;;;;;;;;;;10403500;28;20040;-78
2024/01/29 18:05:42;;;;;;;121.87;67.33;;;;;;;;;;10404858;28;20025;-78
2024/01/29 18:10:43;;;;;;;131.27;69.97;;;;;;;;;;10395843;28;20095;-80
2024/01/29 18:15:44;;;;;;;141.83;75.80;;;;;;;;;;10401322;28;20045;-79
2024/01/29 18:20:45;;;;;;;132.83;69.03;;;;;;;;;;10391209;28;20805;-81
2024/01/29 18:25:46;;;;;;;143.03;72.93;;;;;;;;;;10390798;28;20056;-78
2024/01/29 18:30:47;;;;;;;127.77;67.93;;;;;;;;;;10403109;28;20033;-78
2024/01/29 18:35:48;;;;;;;128.27;67.60;;;;;;;;;;10398944;28;20037;-82
2024/01/29 18:40:49;;;;;;;147.17;79.77;;;;;;;;;;10389772;28;20480;-78
2024/01/29 18:45:50;;;;;;;151.47;85.10;;;;;;;;;;10361486;28;20061;-79
2024/01/29 18:50:51;;;;;;;151.07;81.97;;;;;;;;;;10355711;28;20088;-82
2024/01/29 18:55:58;;;;;;;196.70;109.53;;;;;;;;;;10356693;28;20509;-79
2024/01/29 19:00:59;;;;;;;169.10;87.63;;;;;;;;;;10359952;28;20044;-81
2024/01/29 19:06:00;;;;;;;148.27;78.30;;;;;;;;;;10359913;28;20041;-78
2024/01/29 19:11:02;;;;;;;156.60;77.83;;;;;;;;;;10349239;28;20478;-78
2024/01/29 19:16:03;;;;;;;163.33;81.37;;;;;;;;;;10349282;28;20037;-79
2024/01/29 19:21:06;;;;;;;149.90;78.10;;;;;;;;;;10353785;28;20034;-79
2024/01/29 19:26:07;;;;;;;160.40;85.07;;;;;;;;;;10358465;28;20030;-77
2024/01/29 19:31:08;;;;;;;164.83;89.33;;;;;;;;;;10346392;28;20030;-81
2024/01/29 19:36:10;;;;;;;172.30;95.90;;;;;;;;;;10357160;28;20088;-78
2024/01/29 19:41:11;;;;;;;189.67;102.60;;;;;;;;;;10360371;28;20026;-78
2024/01/29 19:46:12;;;;;;;146.93;79.00;;;;;;;;;;10357146;28;20110;-78
2024/01/29 19:51:19;;;;;;;182.03;93.37;;;;;;;;;;10351619;28;20034;-78
2024/01/29 19:56:21;;;;;;;164.27;88.23;;;;;;;;;;10358790;28;20053;-79
2024/01/29 20:01:22;;;;;;;173.20;99.87;;;;;;;;;;10348513;28;20025;-80
2024/01/29 20:06:23;;;;;;;146.17;83.40;;;;;;;;;;10346436;28;20026;-78
2024/01/29 20:11:24;;;;;;;154.67;85.10;;;;;;;;;;10351803;28;20045;-80
2024/01/29 20:16:25;;;;;;;144.50;80.70;;;;;;;;;;10360932;28;20050;-78
2024/01/29 20:21:26;;;;;;;160.97;82.83;;;;;;;;;;10363535;28;20026;-79
2024/01/29 20:26:27;;;;;;;154.20;81.80;;;;;;;;;;10365715;28;20034;-79
2024/01/29 20:31:29;;;;;;;144.07;78.10;;;;;;;;;;10363688;28;20038;-79
2024/01/29 20:36:31;;;;;;;147.00;78.73;;;;;;;;;;10364033;28;20475;-79
2024/01/29 20:41:32;;;;;;;142.83;79.43;;;;;;;;;;10365885;28;20044;-78
2024/01/29 20:46:33;;;;;;;135.47;74.50;;;;;;;;;;10363089;28;20058;-78
2024/01/29 20:51:34;;;;;;;146.87;74.57;;;;;;;;;;10360743;28;20190;-78
2024/01/29 20:56:38;;;;;;;137.73;73.10;;;;;;;;;;10364580;28;20060;-78
2024/01/29 21:01:39;;;;;;;151.20;77.17;;;;;;;;;;10361831;28;20661;-78
2024/01/29 21:06:40;;;;;;;165.57;81.63;;;;;;;;;;10457294;23;20288;-78
2024/01/29 21:11:41;;;;;;;151.57;75.23;;;;;;;;;;10480829;28;20043;-78
2024/01/29 21:16:42;;;;;;;150.03;75.27;;;;;;;;;;10488400;28;20419;-78
2024/01/29 21:21:44;;;;;;;138.40;71.70;;;;;;;;;;10486363;28;20047;-79
2024/01/29 21:26:45;;;;;;;130.23;67.93;;;;;;;;;;10486669;28;20033;-78
2024/01/29 21:31:46;;;;;;;133.93;68.27;;;;;;;;;;10485871;28;20328;-78
2024/01/29 21:36:48;;;;;;;141.13;71.37;;;;;;;;;;10486516;28;20086;-81
2024/01/29 21:41:51;;;;;;;189.10;94.80;;;;;;;;;;10471647;28;20041;-81
2024/01/29 21:46:52;;;;;;;171.33;91.17;;;;;;;;;;10445855;28;20049;-80
2024/01/29 21:51:53;;;;;;;189.17;94.33;;;;;;;;;;10439402;22;20084;-78
2024/01/29 21:56:54;;;;;;;181.33;94.83;;;;;;;;;;10395576;28;20037;-78
2024/01/29 22:01:55;;;;;;;194.87;104.00;;;;;;;;;;10402905;28;20037;-81
2024/01/29 22:06:56;;;;;;;179.77;95.63;;;;;;;;;;10403875;28;20389;-78
2024/01/29 22:11:58;;;;;;;182.97;94.03;;;;;;;;;;10402665;28;20056;-79
2024/01/29 22:16:59;;;;;;;185.73;97.17;;;;;;;;;;10401503;28;20477;-78
2024/01/29 22:22:00;;;;;;;186.90;101.70;;;;;;;;;;10403145;28;20072;-81
2024/01/29 22:27:02;;;;;;;176.77;96.83;;;;;;;;;;10402470;28;20034;-78
2024/01/29 22:32:03;;;;;;;162.30;86.83;;;;;;;;;;10402488;28;20029;-78
2024/01/29 22:37:10;;;;;;;171.90;91.37;;;;;;;;;;10401927;28;20099;-78
2024/01/29 22:42:12;;;;;;;156.60;84.30;;;;;;;;;;10377692;28;20038;-78
2024/01/29 22:47:14;;;;;;;155.23;80.60;;;;;;;;;;10356668;28;20034;-78
2024/01/29 22:52:15;;;;;;;158.53;80.77;;;;;;;;;;10364321;28;20108;-78
2024/01/29 22:57:16;;;;;;;151.50;75.83;;;;;;;;;;10355442;28;20100;-78
2024/01/29 23:02:23;;;;;;;158.90;80.83;;;;;;;;;;10371167;28;20084;-80
2024/01/29 23:07:24;;;;;;;150.53;75.10;;;;;;;;;;10360730;28;20034;-78
2024/01/29 23:12:26;;;;;;;150.80;77.83;;;;;;;;;;10384468;28;20037;-80
2024/01/29 23:17:27;;;;;;;153.83;77.37;;;;;;;;;;10368805;28;20374;-78
2024/01/29 23:22:28;;;;;;;209.40;91.20;;;;;;;;;;10363879;28;20037;-78
2024/01/29 23:27:29;;;;;;;196.53;87.43;;;;;;;;;;10355749;28;20034;-78
2024/01/29 23:32:31;;;;;;;195.60;87.13;;;;;;;;;;10362812;28;20038;-80
2024/01/29 23:37:32;;;;;;;208.60;91.10;;;;;;;;;;10367321;28;20909;-78
2024/01/29 23:42:33;;;;;;;184.53;85.67;;;;;;;;;;10368644;28;20649;-78
2024/01/29 23:47:34;;;;;;;187.43;91.10;;;;;;;;;;10365461;28;20506;-79
2024/01/29 23:52:35;;;;;;;176.47;82.80;;;;;;;;;;10388442;28;20066;-78
2024/01/29 23:57:36;;;;;;;151.73;76.37;;;;;;;;;;10351696;28;20133;-79
